Impacts TAF Board INFO
FOR SITUATIONAL AWARENESS. NOT TO BE USED FOR FLIGHT PLANNING PURPOSES.
IDs:

KGPT - Gulfport-Biloxi Intl, MS, US

Issued at 1123 UTC 20 May 2018
Updated at 1215 UTC 20 May 2018
Potential Impact None Slight Moderate High
Time<<21/01Z 21/02Z 21/03Z 21/04Z 21/05Z 21/06Z 21/07Z 21/08Z 21/09Z 21/10Z 21/11Z 21/12Z 21/13Z>>
Type PRVL PRVL PRVL PRVL PRVL PRVL PRVL PRVL PRVL PRVL PRVL
VIS >6 >6 >6 >6 >6 >6 >6 >6 >6 >6 >6
CIG -- -- -- -- -- -- -- -- -- -- --
Cover SCT SCT SCT SCT SCT SCT SCT SCT SCT SCT SCT
FltCat VFR VFR VFR VFR VFR VFR VFR VFR VFR VFR VFR
WX VCTS VCTS VCTS VCTS VCTS VCTS VCTS VCTS VCTS -- --
WDir 140 140 140 140 140 140 140 140 140 90 90
WSpd 7 7 7 7 7 7 7 7 7 4 4
WGst -- -- -- -- -- -- -- -- -- -- --

Raw TAF
KGPT 201123Z 2012/2112 00000KT P6SM SKC
  FM201800 14007KT P6SM VCTS SCT020CB SCT250
  FM211000 09004KT P6SM SCT250


METAR Board
Radar Display
Forecast Discussion

FOR SITUATIONAL AWARENESS. NOT TO BE USED FOR FLIGHT PLANNING PURPOSES.